createdAt,value
2018-06-18T00:01:15.375Z,3.60
2018-06-18T00:03:44.422Z,3.43
2018-06-18T00:06:13.853Z,3.33
2018-06-18T00:08:42.924Z,15.70
2018-06-18T00:11:12.196Z,4.10
2018-06-18T00:13:41.242Z,9.10
2018-06-18T00:16:10.305Z,7.63
2018-06-18T00:18:39.371Z,13.47
2018-06-18T00:21:08.421Z,4.77
2018-06-18T00:23:37.502Z,4.17
2018-06-18T00:26:06.764Z,7.40
2018-06-18T00:28:35.813Z,4.27
2018-06-18T00:31:04.885Z,4.10
2018-06-18T00:33:33.916Z,4.37
2018-06-18T00:36:02.975Z,4.10
2018-06-18T00:38:32.073Z,4.20
2018-06-18T00:41:01.108Z,4.50
2018-06-18T00:43:30.204Z,3.97
2018-06-18T00:45:59.565Z,3.97
2018-06-18T00:48:28.821Z,4.17
2018-06-18T00:50:57.979Z,4.00
2018-06-18T00:53:27.070Z,4.67
2018-06-18T00:56:08.201Z,4.80
2018-06-18T00:58:37.873Z,4.20
2018-06-18T01:01:06.933Z,5.10
2018-06-18T01:03:36.092Z,4.63
2018-06-18T01:06:05.502Z,4.57
2018-06-18T01:08:34.797Z,4.40
2018-06-18T01:11:03.869Z,4.77
2018-06-18T01:13:32.939Z,4.47
2018-06-18T01:16:02.213Z,4.67
2018-06-18T01:18:31.718Z,4.30
2018-06-18T01:21:01.001Z,4.77
2018-06-18T01:24:02.611Z,4.40
2018-06-18T01:26:31.701Z,4.90
2018-06-18T01:29:01.000Z,4.10
2018-06-18T01:31:30.310Z,4.20
2018-06-18T01:34:01.351Z,4.30
2018-06-18T01:36:30.381Z,4.53
2018-06-18T01:38:59.410Z,4.20
2018-06-18T01:41:28.719Z,4.40
2018-06-18T01:43:57.744Z,4.70
2018-06-18T01:46:27.009Z,4.77
2018-06-18T01:48:56.061Z,4.53
2018-06-18T01:51:25.341Z,4.37
2018-06-18T01:53:54.693Z,4.30
2018-06-18T01:56:23.948Z,4.40
2018-06-18T01:58:53.206Z,4.47
2018-06-18T02:01:22.487Z,4.37
2018-06-18T02:03:51.549Z,5.00
2018-06-18T02:06:20.697Z,5.20
2018-06-18T02:08:49.740Z,4.30
2018-06-18T02:11:18.788Z,4.87
2018-06-18T02:13:47.821Z,4.70
2018-06-18T02:16:17.044Z,4.60
2018-06-18T02:18:46.132Z,5.17
2018-06-18T02:21:15.212Z,4.53
2018-06-18T02:23:44.350Z,4.10
2018-06-18T02:26:13.388Z,4.30
2018-06-18T02:30:54.517Z,4.80
2018-06-18T02:33:29.312Z,4.67
2018-06-18T02:36:03.673Z,4.63
2018-06-18T02:38:37.198Z,4.63
2018-06-18T02:41:06.525Z,5.17
2018-06-18T02:43:35.567Z,5.17
2018-06-18T02:46:04.607Z,5.57
2018-06-18T02:48:33.894Z,5.47
2018-06-18T02:51:03.020Z,4.33
2018-06-18T02:53:32.106Z,5.50
2018-06-18T02:56:01.846Z,4.50
2018-06-18T02:58:30.985Z,4.70
2018-06-18T03:01:00.018Z,5.40
2018-06-18T03:03:29.328Z,5.10
2018-06-18T03:05:58.844Z,5.63
2018-06-18T03:08:28.213Z,4.97
2018-06-18T03:10:57.262Z,5.00
2018-06-18T03:13:26.350Z,4.50
2018-06-18T03:15:55.386Z,5.10
2018-06-18T03:18:29.986Z,5.93
2018-06-18T03:21:04.436Z,5.27
2018-06-18T03:23:38.802Z,4.87
2018-06-18T03:26:13.130Z,5.50
2018-06-18T03:28:48.594Z,5.50
2018-06-18T03:31:17.653Z,5.20
2018-06-18T03:33:46.761Z,5.20
2018-06-18T03:36:16.037Z,4.90
2018-06-18T03:38:45.325Z,4.50
2018-06-18T03:41:14.621Z,5.20
2018-06-18T03:43:47.878Z,4.37
2018-06-18T03:46:16.926Z,5.23
2018-06-18T03:48:46.194Z,5.10
2018-06-18T03:51:15.256Z,5.40
2018-06-18T03:53:44.312Z,6.20
2018-06-18T03:56:13.710Z,6.03
2018-06-18T03:58:42.776Z,5.90
2018-06-18T04:01:30.387Z,4.60
2018-06-18T04:04:07.073Z,6.40
2018-06-18T04:06:41.437Z,7.97
2018-06-18T04:09:15.757Z,7.60
2018-06-18T04:11:50.068Z,6.40
2018-06-18T04:14:19.153Z,5.87
2018-06-18T04:16:48.261Z,6.40
2018-06-18T04:19:17.590Z,6.50
2018-06-18T04:21:46.674Z,6.43
2018-06-18T04:24:15.949Z,6.80
2018-06-18T04:26:45.078Z,6.50
2018-06-18T04:29:14.126Z,6.07
2018-06-18T04:31:43.192Z,6.07
2018-06-18T04:34:24.611Z,6.37
2018-06-18T04:36:53.657Z,5.43
2018-06-18T04:39:22.709Z,6.10
2018-06-18T04:41:57.206Z,6.60
2018-06-18T04:44:31.622Z,5.70
2018-06-18T04:47:06.201Z,5.67
2018-06-18T04:49:40.740Z,6.90
2018-06-18T04:52:09.812Z,5.70
2018-06-18T04:54:38.961Z,6.23
2018-06-18T04:57:08.299Z,5.03
2018-06-18T04:59:39.337Z,5.57
2018-06-18T05:02:08.511Z,5.73
2018-06-18T05:04:37.608Z,5.73
2018-06-18T05:07:06.910Z,6.87
2018-06-18T05:10:17.011Z,5.67
2018-06-18T05:12:46.359Z,6.07
2018-06-18T05:15:15.798Z,6.43
2018-06-18T05:17:45.158Z,5.20
2018-06-18T05:20:14.275Z,5.43
2018-06-18T05:22:43.307Z,4.70
2018-06-18T05:25:12.781Z,5.97
2018-06-18T05:27:42.679Z,5.90
2018-06-18T05:30:14.186Z,5.40
2018-06-18T05:32:43.680Z,6.57
2018-06-18T05:35:13.317Z,5.40
2018-06-18T05:37:57.053Z,5.80
2018-06-18T05:40:26.350Z,6.20
2018-06-18T05:42:55.421Z,9.77
2018-06-18T05:45:24.474Z,6.80
2018-06-18T05:47:53.555Z,6.43
2018-06-18T05:50:22.680Z,5.43
2018-06-18T05:52:52.039Z,6.07
2018-06-18T05:55:21.552Z,5.20
2018-06-18T05:57:50.849Z,6.20
2018-06-18T06:00:20.055Z,5.80
2018-06-18T06:02:49.181Z,4.90
2018-06-18T06:05:18.249Z,4.87
2018-06-18T06:07:48.174Z,5.07
2018-06-18T06:10:17.499Z,4.63
2018-06-18T06:12:46.905Z,4.57
2018-06-18T06:15:16.229Z,4.40
2018-06-18T06:17:45.338Z,4.10
2018-06-18T06:20:14.880Z,4.30
2018-06-18T06:22:43.952Z,4.17
2018-06-18T06:25:13.009Z,4.17
2018-06-18T06:27:42.066Z,3.93
2018-06-18T06:30:11.152Z,3.40
2018-06-18T06:32:40.425Z,3.40
2018-06-18T06:35:23.968Z,3.10
2018-06-18T06:37:54.797Z,3.23
2018-06-18T06:40:24.081Z,10.03
2018-06-18T06:42:53.194Z,3.63
2018-06-18T06:45:22.402Z,6.07
2018-06-18T06:47:51.753Z,3.70
2018-06-18T06:50:20.882Z,3.10
2018-06-18T06:52:49.961Z,4.30
2018-06-18T06:55:19.280Z,4.03
2018-06-18T06:57:48.406Z,4.30
2018-06-18T07:00:17.573Z,4.47
2018-06-18T07:02:46.698Z,4.87
2018-06-18T07:05:16.164Z,4.90
2018-06-18T07:07:45.897Z,4.80
2018-06-18T07:10:15.404Z,4.27
2018-06-18T07:12:45.912Z,4.70
2018-06-18T07:15:16.313Z,5.27
2018-06-18T07:17:46.528Z,4.37
2018-06-18T07:20:16.378Z,4.80
2018-06-18T07:22:46.486Z,4.73
2018-06-18T07:25:15.925Z,4.40
2018-06-18T07:27:45.931Z,4.90
2018-06-18T07:30:15.260Z,4.73
2018-06-18T07:32:44.455Z,4.67
2018-06-18T07:35:13.787Z,4.20
2018-06-18T07:37:43.285Z,4.40
2018-06-18T07:40:12.564Z,4.00
2018-06-18T07:42:42.124Z,3.87
2018-06-18T07:45:11.370Z,4.03
2018-06-18T07:47:40.605Z,3.80
2018-06-18T07:50:10.571Z,4.50
2018-06-18T07:52:39.962Z,3.80
2018-06-18T07:55:09.263Z,4.00
2018-06-18T07:57:39.275Z,4.33
2018-06-18T08:00:08.680Z,2.87
2018-06-18T08:02:37.729Z,4.30
2018-06-18T08:05:07.030Z,4.10
2018-06-18T08:07:36.226Z,3.93
2018-06-18T08:10:05.432Z,4.57
2018-06-18T08:12:34.754Z,3.90
2018-06-18T08:15:04.304Z,3.90
2018-06-18T08:17:33.385Z,3.90
2018-06-18T08:20:02.731Z,3.60
2018-06-18T08:22:31.835Z,3.97
2018-06-18T08:25:01.156Z,3.80
2018-06-18T08:27:30.237Z,3.90
2018-06-18T08:29:59.330Z,4.30
2018-06-18T08:32:28.448Z,4.40
2018-06-18T08:34:57.948Z,5.10
2018-06-18T08:37:27.382Z,4.13
2018-06-18T08:39:57.025Z,5.10
2018-06-18T08:42:26.111Z,5.23
2018-06-18T08:44:55.680Z,5.60
2018-06-18T08:47:24.773Z,5.40
2018-06-18T08:49:59.371Z,4.80
2018-06-18T08:52:33.773Z,4.13
2018-06-18T08:55:08.829Z,5.10
2018-06-18T08:57:43.189Z,3.80
2018-06-18T09:00:17.973Z,5.33
2018-06-18T09:02:48.065Z,4.90
2018-06-18T09:05:21.385Z,4.17
2018-06-18T09:07:53.782Z,4.57
2018-06-18T09:10:22.893Z,4.10
2018-06-18T09:12:52.069Z,4.60
2018-06-18T09:15:21.349Z,4.60
2018-06-18T09:17:50.473Z,4.97
2018-06-18T09:20:19.753Z,4.03
2018-06-18T09:22:48.810Z,4.50
2018-06-18T09:25:18.124Z,5.20
2018-06-18T09:27:47.157Z,5.20
2018-06-18T09:30:16.205Z,4.20
2018-06-18T09:32:45.396Z,3.63
2018-06-18T09:35:14.487Z,4.03
2018-06-18T09:37:43.753Z,3.93
2018-06-18T09:40:13.024Z,3.90
2018-06-18T09:42:42.065Z,4.17
2018-06-18T09:45:11.109Z,4.10
2018-06-18T09:47:40.247Z,4.00
2018-06-18T09:50:14.581Z,4.70
2018-06-18T09:52:49.214Z,4.97
2018-06-18T09:55:23.593Z,5.43
2018-06-18T09:57:58.081Z,3.93
2018-06-18T10:00:43.813Z,4.80
2018-06-18T10:03:12.872Z,5.00
2018-06-18T10:05:41.938Z,4.70
2018-06-18T10:08:11.081Z,4.73
2018-06-18T10:10:40.543Z,4.80
2018-06-18T10:13:09.873Z,5.03
2018-06-18T10:15:39.625Z,4.67
2018-06-18T10:18:09.124Z,6.00
2018-06-18T10:20:38.245Z,5.40
2018-06-18T10:23:07.846Z,4.60
2018-06-18T10:25:37.366Z,4.90
2018-06-18T10:28:07.462Z,4.67
2018-06-18T10:30:36.534Z,4.63
2018-06-18T10:33:10.970Z,5.10
2018-06-18T10:35:45.642Z,5.23
2018-06-18T10:38:20.242Z,4.90
2018-06-18T10:40:54.946Z,5.00
2018-06-18T10:43:27.137Z,5.07
2018-06-18T10:45:56.498Z,5.10
2018-06-18T10:48:26.008Z,5.77
2018-06-18T10:50:55.781Z,5.93
2018-06-18T10:53:25.125Z,5.50
2018-06-18T10:55:54.478Z,4.60
2018-06-18T10:58:23.747Z,6.07
2018-06-18T11:00:56.862Z,5.13
2018-06-18T11:03:26.206Z,5.70
2018-06-18T11:06:00.808Z,5.00
2018-06-18T11:08:29.954Z,4.90
2018-06-18T11:10:59.045Z,4.70
2018-06-18T11:13:28.309Z,5.07
2018-06-18T11:15:57.553Z,4.63
2018-06-18T11:18:31.900Z,5.00
2018-06-18T11:21:07.535Z,4.60
2018-06-18T11:25:45.946Z,5.13
2018-06-18T11:28:15.797Z,5.00
2018-06-18T11:30:44.950Z,5.73
2018-06-18T11:33:14.018Z,4.80
2018-06-18T11:35:43.093Z,4.90
2018-06-18T11:38:12.200Z,5.23
2018-06-18T11:40:47.592Z,4.30
2018-06-18T11:43:16.840Z,4.30
2018-06-18T11:45:46.432Z,4.50
2018-06-18T11:48:17.472Z,5.00
2018-06-18T11:50:47.393Z,4.53
2018-06-18T11:53:16.787Z,4.87
2018-06-18T11:55:45.828Z,4.63
2018-06-18T12:00:21.412Z,5.27
2018-06-18T12:02:55.871Z,4.30
2018-06-18T12:05:30.272Z,4.67
2018-06-18T12:08:05.137Z,4.80
2018-06-18T12:10:34.264Z,4.60
2018-06-18T12:13:03.479Z,5.43
2018-06-18T12:15:32.574Z,4.50
2018-06-18T12:18:01.668Z,4.13
2018-06-18T12:20:30.965Z,4.53
2018-06-18T12:23:00.831Z,3.60
2018-06-18T12:25:30.190Z,3.63
2018-06-18T12:27:59.275Z,4.00
2018-06-18T12:30:28.604Z,3.60
2018-06-18T12:32:57.653Z,4.10
2018-06-18T12:35:27.291Z,3.70
2018-06-18T12:37:56.521Z,3.43
2018-06-18T12:40:26.217Z,3.53
2018-06-18T12:42:55.745Z,3.40
2018-06-18T12:45:30.331Z,3.13
2018-06-18T12:48:05.069Z,3.07
2018-06-18T12:50:39.471Z,2.80
2018-06-18T12:53:13.962Z,2.80
2018-06-18T12:55:48.359Z,2.90
2018-06-18T12:58:17.532Z,3.10
2018-06-18T13:00:46.871Z,2.80
2018-06-18T13:03:16.924Z,3.13
2018-06-18T13:05:45.997Z,3.20
2018-06-18T13:08:15.502Z,3.40
2018-06-18T13:10:44.619Z,3.10
2018-06-18T13:13:13.756Z,3.20
2018-06-18T13:15:42.835Z,3.37
2018-06-18T13:18:12.493Z,3.00
2018-06-18T13:20:41.949Z,3.43
2018-06-18T13:23:11.241Z,3.23
2018-06-18T13:25:40.668Z,3.90
2018-06-18T13:28:15.124Z,3.33
2018-06-18T13:30:44.607Z,2.60
2018-06-18T13:33:13.876Z,3.00
2018-06-18T13:35:43.258Z,2.57
2018-06-18T13:38:17.681Z,3.30
2018-06-18T13:40:51.982Z,3.53
2018-06-18T13:43:26.322Z,3.00
2018-06-18T13:46:00.745Z,2.90
2018-06-18T13:48:35.161Z,2.93
2018-06-18T13:51:04.505Z,2.53
2018-06-18T13:53:33.563Z,2.83
2018-06-18T13:56:02.601Z,2.33
2018-06-18T13:58:31.741Z,2.50
2018-06-18T14:01:01.012Z,2.70
2018-06-18T14:03:30.300Z,2.53
2018-06-18T14:05:59.832Z,2.50
2018-06-18T14:08:29.137Z,2.60
2018-06-18T14:10:58.423Z,2.60
2018-06-18T14:13:27.489Z,2.60
2018-06-18T14:15:56.576Z,2.70
2018-06-18T14:18:25.703Z,2.90
2018-06-18T14:20:54.959Z,2.90
2018-06-18T14:23:24.034Z,2.70
2018-06-18T14:25:53.283Z,2.90
2018-06-18T14:28:22.427Z,2.77
2018-06-18T14:30:57.279Z,2.33
2018-06-18T14:33:31.700Z,2.50
2018-06-18T14:36:06.100Z,2.50
2018-06-18T14:38:40.577Z,2.07
2018-06-18T14:41:09.938Z,2.20
2018-06-18T14:43:39.009Z,2.37
2018-06-18T14:46:08.444Z,2.07
2018-06-18T14:48:37.477Z,2.23
2018-06-18T14:51:06.467Z,2.30
2018-06-18T14:53:35.534Z,2.43
2018-06-18T14:56:11.897Z,1.90
2018-06-18T14:58:42.918Z,2.10
2018-06-18T15:01:12.399Z,2.40
2018-06-18T15:03:41.664Z,2.03
2018-06-18T15:06:10.897Z,2.20
2018-06-18T15:08:39.964Z,2.30
2018-06-18T15:11:09.094Z,2.70
2018-06-18T15:13:38.427Z,2.20
2018-06-18T15:16:12.941Z,2.40
2018-06-18T15:18:42.013Z,2.40
2018-06-18T15:21:11.274Z,2.40
2018-06-18T15:23:40.706Z,2.60
2018-06-18T15:26:10.085Z,2.50
2018-06-18T15:28:39.069Z,2.20
2018-06-18T15:31:08.412Z,2.40
2018-06-18T15:33:37.742Z,2.80
2018-06-18T15:36:07.017Z,2.20
2018-06-18T15:38:36.130Z,2.40
2018-06-18T15:41:05.199Z,2.47
2018-06-18T15:43:34.245Z,2.60
2018-06-18T15:46:03.316Z,2.50
2018-06-18T15:48:32.359Z,2.50
2018-06-18T15:51:01.637Z,2.60
2018-06-18T15:53:30.744Z,2.70
2018-06-18T15:56:00.101Z,2.50
2018-06-18T15:58:29.605Z,2.37
2018-06-18T16:00:58.730Z,2.50
2018-06-18T16:03:27.882Z,2.17
2018-06-18T16:05:57.169Z,2.40
2018-06-18T16:08:26.501Z,2.80
2018-06-18T16:10:55.881Z,2.40
2018-06-18T16:13:24.919Z,2.50
2018-06-18T16:15:53.965Z,2.20
2018-06-18T16:18:23.457Z,2.40
2018-06-18T16:20:52.484Z,2.53
2018-06-18T16:23:21.542Z,2.40
2018-06-18T16:25:50.607Z,2.63
2018-06-18T16:28:20.141Z,2.57
2018-06-18T16:30:49.201Z,2.60
2018-06-18T16:33:18.630Z,2.27
2018-06-18T16:35:48.239Z,2.20
2018-06-18T16:38:17.282Z,2.50
2018-06-18T16:40:46.374Z,2.07
2018-06-18T16:43:15.461Z,2.50
2018-06-18T16:45:44.516Z,2.20
2018-06-18T16:48:13.625Z,2.33
2018-06-18T16:50:42.909Z,2.30
2018-06-18T16:53:12.008Z,2.07
2018-06-18T16:55:41.393Z,2.23
2018-06-18T16:58:10.495Z,2.23
2018-06-18T17:00:39.877Z,2.40
2018-06-18T17:03:09.166Z,2.40
2018-06-18T17:05:38.487Z,2.63
2018-06-18T17:08:07.813Z,2.30
2018-06-18T17:10:37.097Z,2.63
2018-06-18T17:13:06.161Z,2.27
2018-06-18T17:15:35.302Z,2.40
2018-06-18T17:18:04.496Z,2.40
2018-06-18T17:20:33.838Z,2.40
2018-06-18T17:23:03.105Z,2.67
2018-06-18T17:25:32.381Z,2.10
2018-06-18T17:28:01.467Z,2.30
2018-06-18T17:30:30.535Z,2.40
2018-06-18T17:32:59.810Z,2.40
2018-06-18T17:35:29.110Z,2.57
2018-06-18T17:37:58.468Z,2.70
2018-06-18T17:40:27.759Z,2.70
2018-06-18T17:42:56.829Z,2.50
2018-06-18T17:45:25.882Z,2.33
2018-06-18T17:47:55.348Z,2.93
2018-06-18T17:50:24.698Z,2.20
2018-06-18T17:52:54.397Z,2.00
2018-06-18T17:55:23.449Z,2.03
2018-06-18T17:57:52.757Z,2.70
2018-06-18T18:00:22.544Z,2.13
2018-06-18T18:02:51.953Z,2.50
2018-06-18T18:05:22.124Z,2.30
2018-06-18T18:07:51.182Z,2.20
2018-06-18T18:10:20.745Z,2.50
2018-06-18T18:12:49.805Z,1.60
2018-06-18T18:15:18.896Z,1.70
2018-06-18T18:17:47.958Z,2.00
2018-06-18T18:20:17.973Z,2.00
2018-06-18T18:22:47.330Z,1.60
2018-06-18T18:25:16.417Z,1.63
2018-06-18T18:27:45.490Z,2.87
2018-06-18T18:30:14.545Z,2.00
2018-06-18T18:32:43.581Z,2.53
2018-06-18T18:35:13.051Z,2.50
2018-06-18T18:37:42.153Z,2.77
2018-06-18T18:40:11.302Z,1.93
2018-06-18T18:42:40.352Z,2.20
2018-06-18T18:45:09.635Z,1.80
2018-06-18T18:47:38.831Z,2.60
2018-06-18T18:50:08.058Z,1.90
2018-06-18T18:52:37.292Z,2.20
2018-06-18T18:55:44.220Z,2.27
2018-06-18T18:59:19.453Z,2.00
2018-06-18T19:01:48.801Z,1.97
2018-06-18T19:04:23.299Z,1.93
2018-06-18T19:06:52.635Z,12.63
2018-06-18T19:09:25.977Z,4.70
2018-06-18T19:11:55.371Z,4.00
2018-06-18T19:14:25.796Z,7.23
2018-06-18T19:16:54.990Z,2.93
2018-06-18T19:19:26.485Z,3.17
2018-06-18T19:21:55.553Z,2.50
2018-06-18T19:24:25.408Z,2.30
2018-06-18T19:26:54.524Z,2.53
2018-06-18T19:29:23.713Z,2.80
2018-06-18T19:31:52.770Z,3.07
2018-06-18T19:34:24.701Z,2.70
2018-06-18T19:36:55.503Z,2.70
2018-06-18T19:39:28.200Z,2.80
2018-06-18T19:41:57.269Z,2.80
2018-06-18T19:44:28.037Z,2.70
2018-06-18T19:47:07.871Z,2.50
2018-06-18T19:49:36.946Z,2.47
2018-06-18T19:52:06.039Z,2.80
2018-06-18T19:54:39.983Z,2.97
2018-06-18T19:57:09.446Z,2.80
2018-06-18T19:59:38.596Z,2.80
2018-06-18T20:02:07.910Z,2.70
2018-06-18T20:04:37.022Z,4.20
2018-06-18T20:07:06.196Z,3.37
2018-06-18T20:09:35.239Z,3.00
2018-06-18T20:12:04.309Z,3.13
2018-06-18T20:14:33.564Z,3.00
2018-06-18T20:17:03.991Z,3.50
2018-06-18T20:19:33.120Z,2.90
2018-06-18T20:22:02.333Z,3.10
2018-06-18T20:24:31.968Z,2.90
2018-06-18T20:27:01.023Z,3.03
2018-06-18T20:29:30.170Z,3.07
2018-06-18T20:31:59.323Z,3.50
2018-06-18T20:34:28.384Z,2.70
2018-06-18T20:36:57.557Z,3.20
2018-06-18T20:39:26.655Z,3.17
2018-06-18T20:41:55.688Z,3.40
2018-06-18T20:44:25.335Z,3.50
2018-06-18T20:46:54.809Z,3.40
2018-06-18T20:49:23.940Z,3.40
2018-06-18T20:51:53.970Z,3.37
2018-06-18T20:54:23.341Z,3.47
2018-06-18T20:56:52.839Z,3.27
2018-06-18T20:59:22.151Z,3.20
2018-06-18T21:01:51.528Z,3.60
2018-06-18T21:04:20.760Z,3.33
2018-06-18T21:06:49.833Z,3.40
2018-06-18T21:09:19.074Z,3.50
2018-06-18T21:11:48.116Z,3.60
2018-06-18T21:14:17.572Z,3.40
2018-06-18T21:16:47.856Z,3.77
2018-06-18T21:19:17.180Z,3.60
2018-06-18T21:21:46.309Z,3.63
2018-06-18T21:24:15.890Z,3.57
2018-06-18T21:26:44.993Z,3.20
2018-06-18T21:29:14.084Z,3.70
2018-06-18T21:31:43.181Z,3.70
2018-06-18T21:34:12.352Z,3.17
2018-06-18T21:36:41.654Z,3.07
2018-06-18T21:39:11.413Z,3.30
2018-06-18T21:41:40.737Z,3.20
2018-06-18T21:44:15.561Z,3.00
2018-06-18T21:46:44.772Z,3.53
2018-06-18T21:49:13.893Z,2.93
2018-06-18T21:51:43.233Z,3.60
2018-06-18T21:54:12.369Z,3.13
2018-06-18T21:56:41.492Z,3.57
2018-06-18T21:59:10.771Z,3.33
2018-06-18T22:01:44.561Z,3.37
2018-06-18T22:04:14.998Z,2.87
2018-06-18T22:06:45.031Z,3.40
2018-06-18T22:09:16.186Z,3.10
2018-06-18T22:11:47.770Z,3.27
2018-06-18T22:14:16.809Z,3.07
2018-06-18T22:16:45.902Z,3.03
2018-06-18T22:19:15.163Z,3.30
2018-06-18T22:21:44.186Z,3.30
2018-06-18T22:24:13.278Z,3.20
2018-06-18T22:26:42.412Z,3.40
2018-06-18T22:29:11.916Z,3.23
2018-06-18T22:31:41.008Z,3.20
2018-06-18T22:34:10.298Z,3.80
2018-06-18T22:36:39.342Z,3.63
2018-06-18T22:39:09.888Z,3.17
2018-06-18T22:41:38.976Z,3.63
2018-06-18T22:44:08.648Z,3.50
2018-06-18T22:46:37.954Z,3.47
2018-06-18T22:49:07.327Z,3.20
2018-06-18T22:51:36.400Z,3.60
2018-06-18T22:54:05.820Z,3.17
2018-06-18T22:56:34.873Z,2.93
2018-06-18T22:59:03.916Z,3.10
2018-06-18T23:01:33.435Z,3.17
2018-06-18T23:04:02.448Z,3.47
2018-06-18T23:06:31.516Z,3.57
2018-06-18T23:09:05.736Z,3.53
2018-06-18T23:11:34.825Z,3.70
2018-06-18T23:14:05.376Z,3.80
2018-06-18T23:16:34.684Z,3.37
2018-06-18T23:19:03.958Z,3.33
2018-06-18T23:21:32.970Z,3.17
2018-06-18T23:24:02.237Z,3.40
2018-06-18T23:26:31.506Z,3.47
2018-06-18T23:29:03.656Z,3.30
2018-06-18T23:31:32.699Z,2.97
2018-06-18T23:34:02.009Z,3.33
2018-06-18T23:36:31.060Z,3.67
2018-06-18T23:39:00.120Z,3.70
2018-06-18T23:41:31.211Z,3.00
2018-06-18T23:44:00.801Z,3.30
2018-06-18T23:46:30.313Z,3.40
2018-06-18T23:48:59.397Z,3.60
2018-06-18T23:51:29.502Z,3.40
2018-06-18T23:53:58.881Z,3.20
2018-06-18T23:56:28.233Z,3.40
2018-06-18T23:58:57.765Z,3.17
